createdAt,value
2019-02-07T00:00:05.803Z,55.54
2019-02-07T00:02:54.278Z,55.42
2019-02-07T00:05:41.903Z,55.36
2019-02-07T00:08:29.818Z,55.22
2019-02-07T00:11:17.161Z,55.30
2019-02-07T00:14:04.581Z,55.46
2019-02-07T00:16:51.900Z,55.33
2019-02-07T00:19:39.941Z,55.27
2019-02-07T00:22:27.671Z,55.48
2019-02-07T00:25:15.199Z,55.59
2019-02-07T00:28:03.548Z,55.61
2019-02-07T00:30:51.172Z,55.56
2019-02-07T00:33:38.391Z,55.59
2019-02-07T00:36:25.816Z,55.52
2019-02-07T00:39:14.470Z,55.70
2019-02-07T00:42:02.201Z,55.50
2019-02-07T00:44:51.543Z,55.49
2019-02-07T00:47:38.409Z,55.25
2019-02-07T00:50:26.109Z,55.17
2019-02-07T00:53:13.532Z,55.07
2019-02-07T00:56:00.958Z,55.58
2019-02-07T00:58:48.185Z,55.82
2019-02-07T01:01:36.009Z,55.51
2019-02-07T01:04:23.639Z,55.48
2019-02-07T01:07:10.862Z,55.45
2019-02-07T01:09:58.488Z,55.28
2019-02-07T01:12:46.012Z,55.28
2019-02-07T01:15:33.335Z,55.43
2019-02-07T01:18:20.355Z,55.41
2019-02-07T01:21:08.203Z,55.30
2019-02-07T01:23:55.609Z,55.36
2019-02-07T01:26:43.030Z,55.53
2019-02-07T01:29:30.865Z,55.92
2019-02-07T01:32:18.391Z,55.68
2019-02-07T01:35:07.134Z,55.68
2019-02-07T01:37:54.363Z,55.13
2019-02-07T01:40:42.813Z,55.35
2019-02-07T01:43:30.032Z,55.17
2019-02-07T01:46:17.660Z,54.64
2019-02-07T01:49:05.220Z,54.22
2019-02-07T01:51:52.920Z,54.15
2019-02-07T01:54:40.244Z,53.74
2019-02-07T01:57:28.079Z,53.27
2019-02-07T02:00:17.941Z,53.33
2019-02-07T02:03:05.970Z,53.19
2019-02-07T02:05:53.632Z,53.13
2019-02-07T02:08:40.856Z,53.28
2019-02-07T02:11:28.368Z,53.11
2019-02-07T02:14:17.020Z,53.18
2019-02-07T02:17:04.449Z,53.29
2019-02-07T02:19:52.175Z,53.22
2019-02-07T02:22:40.711Z,53.14
2019-02-07T02:25:28.255Z,52.94
2019-02-07T02:28:16.808Z,52.76
2019-02-07T02:31:04.739Z,52.64
2019-02-07T02:33:52.174Z,52.61
2019-02-07T02:36:39.893Z,52.50
2019-02-07T02:39:26.912Z,52.51
2019-02-07T02:42:14.336Z,53.15
2019-02-07T02:45:01.671Z,53.54
2019-02-07T02:47:50.058Z,53.44
2019-02-07T02:50:38.034Z,53.74
2019-02-07T02:53:25.257Z,53.57
2019-02-07T02:56:12.612Z,53.49
2019-02-07T02:59:00.210Z,53.54
2019-02-07T03:01:49.170Z,52.86
2019-02-07T03:04:38.638Z,52.74
2019-02-07T03:07:27.394Z,52.86
2019-02-07T03:10:35.309Z,52.88
2019-02-07T03:13:27.024Z,52.84
2019-02-07T03:16:24.995Z,52.79
2019-02-07T03:19:23.585Z,53.01
2019-02-07T03:22:25.142Z,52.79
2019-02-07T03:25:30.994Z,52.61
2019-02-07T03:28:25.889Z,52.43
2019-02-07T03:31:17.929Z,52.70
2019-02-07T03:34:07.294Z,52.67
2019-02-07T03:36:55.944Z,52.52
2019-02-07T03:40:01.093Z,52.33
2019-02-07T03:42:59.369Z,52.26
2019-02-07T03:46:03.014Z,52.24
2019-02-07T03:48:49.059Z,52.57
2019-02-07T03:51:43.626Z,52.74
2019-02-07T03:54:38.963Z,52.43
2019-02-07T03:57:34.166Z,52.84
2019-02-07T04:00:28.760Z,52.90
2019-02-07T04:03:18.046Z,52.69
2019-02-07T04:06:18.964Z,54.19
2019-02-07T04:09:13.049Z,54.00
2019-02-07T04:12:02.318Z,53.93
2019-02-07T04:14:54.346Z,53.37
2019-02-07T04:17:43.962Z,52.56
2019-02-07T04:20:33.186Z,51.53
2019-02-07T04:23:22.098Z,51.63
2019-02-07T04:26:27.491Z,51.49
2019-02-07T04:29:33.553Z,50.97
2019-02-07T04:32:28.761Z,51.46
2019-02-07T04:35:18.026Z,51.38
2019-02-07T04:38:13.133Z,51.58
2019-02-07T04:41:02.091Z,51.44
2019-02-07T04:43:50.844Z,51.59
2019-02-07T04:46:40.213Z,51.43
2019-02-07T04:49:45.779Z,51.95
2019-02-07T04:52:45.172Z,51.91
2019-02-07T04:55:37.126Z,52.30
2019-02-07T04:58:26.296Z,52.97
2019-02-07T05:01:24.342Z,54.36
2019-02-07T05:04:29.169Z,54.18
2019-02-07T05:07:24.385Z,54.83
2019-02-07T05:10:19.579Z,56.10
2019-02-07T05:13:08.959Z,55.58
2019-02-07T05:16:07.124Z,53.54
2019-02-07T05:19:11.955Z,53.04
2019-02-07T05:22:17.618Z,53.24
2019-02-07T05:25:23.668Z,52.46
2019-02-07T05:28:15.194Z,52.46
2019-02-07T05:31:04.046Z,50.83
2019-02-07T05:33:53.208Z,50.01
2019-02-07T05:36:54.562Z,49.73
2019-02-07T05:39:50.794Z,49.60
2019-02-07T05:42:42.514Z,48.83
2019-02-07T05:45:31.687Z,49.19
2019-02-07T05:48:36.819Z,49.15
2019-02-07T05:51:38.068Z,48.91
2019-02-07T05:54:26.891Z,48.68
2019-02-07T05:57:19.061Z,48.52
2019-02-07T06:00:26.965Z,47.87
2019-02-07T06:03:16.233Z,48.04
2019-02-07T06:06:23.622Z,47.56
2019-02-07T06:09:13.099Z,47.87
2019-02-07T06:12:18.660Z,47.68
2019-02-07T06:15:09.575Z,48.14
2019-02-07T06:18:04.344Z,47.03
2019-02-07T06:20:53.511Z,48.53
2019-02-07T06:23:42.470Z,52.99
2019-02-07T06:26:31.739Z,54.45
2019-02-07T06:29:36.158Z,53.42
2019-02-07T06:32:28.089Z,51.55
2019-02-07T06:35:26.574Z,50.08
2019-02-07T06:38:21.603Z,49.21
2019-02-07T06:41:22.605Z,49.17
2019-02-07T06:44:26.630Z,49.48
2019-02-07T06:47:31.666Z,48.72
2019-02-07T06:50:20.831Z,49.70
2019-02-07T06:53:19.725Z,50.99
2019-02-07T06:56:23.594Z,50.96
2019-02-07T06:59:28.982Z,50.53
2019-02-07T07:02:23.881Z,50.22
2019-02-07T07:05:29.079Z,49.69
2019-02-07T07:08:27.595Z,48.39
2019-02-07T07:11:20.373Z,48.60
2019-02-07T07:14:09.315Z,48.75
2019-02-07T07:17:25.582Z,48.68
2019-02-07T07:20:19.494Z,48.28
2019-02-07T07:23:11.519Z,49.35
2019-02-07T07:26:03.555Z,49.24
2019-02-07T07:29:10.636Z,48.94
2019-02-07T07:32:02.673Z,48.83
2019-02-07T07:35:07.321Z,49.55
2019-02-07T07:38:02.196Z,49.69
2019-02-07T07:41:10.511Z,50.29
2019-02-07T07:43:59.865Z,51.77
2019-02-07T07:46:54.777Z,52.17
2019-02-07T07:49:50.086Z,52.78
2019-02-07T07:52:38.948Z,53.32
2019-02-07T07:55:31.121Z,53.05
2019-02-07T07:58:29.357Z,53.26
2019-02-07T08:01:24.872Z,53.64
2019-02-07T08:04:22.534Z,53.42
2019-02-07T08:07:11.598Z,52.57
2019-02-07T08:10:16.842Z,51.86
2019-02-07T08:13:16.090Z,52.75
2019-02-07T08:16:21.485Z,53.00
2019-02-07T08:19:14.808Z,52.81
2019-02-07T08:22:05.386Z,52.13
2019-02-07T08:25:00.521Z,51.54
2019-02-07T08:27:50.022Z,51.53
2019-02-07T08:30:48.811Z,51.77
2019-02-07T08:33:39.318Z,52.14
2019-02-07T08:36:34.054Z,51.63
2019-02-07T08:39:31.359Z,52.54
2019-02-07T08:42:32.621Z,51.83
2019-02-07T08:45:32.171Z,51.71
2019-02-07T08:48:21.383Z,52.54
2019-02-07T08:51:22.730Z,52.35
2019-02-07T08:54:28.583Z,52.39
2019-02-07T08:57:17.856Z,52.74
2019-02-07T09:00:21.560Z,52.75
2019-02-07T09:03:10.727Z,52.23
2019-02-07T09:06:02.968Z,52.68
2019-02-07T09:08:54.583Z,52.66
2019-02-07T09:11:52.759Z,51.89
2019-02-07T09:14:58.617Z,52.25
2019-02-07T09:18:10.032Z,52.01
2019-02-07T09:20:53.435Z,52.11
2019-02-07T09:23:48.433Z,52.27
2019-02-07T09:26:46.517Z,53.31
2019-02-07T09:29:51.545Z,53.63
2019-02-07T09:32:43.679Z,54.37
2019-02-07T09:35:32.438Z,54.23
2019-02-07T09:38:38.189Z,54.28
2019-02-07T09:41:27.648Z,54.40
2019-02-07T09:44:16.520Z,55.67
2019-02-07T09:47:08.651Z,56.87
2019-02-07T09:50:00.484Z,55.90
2019-02-07T09:53:05.927Z,55.42
2019-02-07T09:56:11.169Z,56.17
2019-02-07T09:59:03.530Z,57.60
2019-02-07T10:01:55.544Z,59.13
2019-02-07T10:04:59.859Z,58.65
2019-02-07T10:08:00.969Z,58.83
2019-02-07T10:10:56.368Z,59.50
2019-02-07T10:13:54.797Z,60.21
2019-02-07T10:16:46.620Z,62.61
2019-02-07T10:19:51.555Z,62.26
2019-02-07T10:22:43.384Z,62.30
2019-02-07T10:25:35.006Z,62.69
2019-02-07T10:28:40.047Z,62.69
2019-02-07T10:31:47.846Z,63.37
2019-02-07T10:34:36.703Z,63.04
2019-02-07T10:37:26.180Z,63.00
2019-02-07T10:40:29.573Z,64.76
2019-02-07T10:43:18.233Z,64.22
2019-02-07T10:46:27.224Z,65.77
2019-02-07T10:49:18.987Z,65.60
2019-02-07T10:52:10.808Z,65.61
2019-02-07T10:54:59.573Z,65.20
2019-02-07T10:57:54.431Z,64.61
2019-02-07T11:00:43.524Z,66.76
2019-02-07T11:03:32.996Z,67.06
2019-02-07T11:06:28.406Z,65.89
2019-02-07T11:09:17.472Z,66.20
2019-02-07T11:12:19.948Z,66.96
2019-02-07T11:15:11.859Z,67.58
2019-02-07T11:18:04.116Z,66.57
2019-02-07T11:21:09.358Z,68.08
2019-02-07T11:23:58.826Z,69.00
2019-02-07T11:26:56.593Z,68.94
2019-02-07T11:29:57.329Z,68.53
2019-02-07T11:32:46.607Z,68.91
2019-02-07T11:35:35.555Z,69.70
2019-02-07T11:38:41.620Z,67.15
2019-02-07T11:41:33.879Z,66.25
2019-02-07T11:44:39.403Z,65.44
2019-02-07T11:47:31.100Z,65.05
2019-02-07T11:50:36.471Z,64.42
2019-02-07T11:53:43.569Z,64.97
2019-02-07T11:56:49.105Z,63.68
2019-02-07T11:59:44.826Z,63.10
2019-02-07T12:02:51.297Z,64.91
2019-02-07T12:05:56.439Z,66.27
2019-02-07T12:08:52.661Z,65.67
2019-02-07T12:11:48.694Z,66.05
2019-02-07T12:14:40.806Z,65.02
2019-02-07T12:17:41.868Z,64.54
2019-02-07T12:20:43.319Z,64.02
2019-02-07T12:23:44.054Z,63.10
2019-02-07T12:26:36.598Z,62.50
2019-02-07T12:29:34.570Z,61.70
2019-02-07T12:32:32.671Z,62.03
2019-02-07T12:35:22.117Z,62.97
2019-02-07T12:38:12.937Z,62.78
2019-02-07T12:41:08.330Z,62.65
2019-02-07T12:44:00.056Z,62.57
2019-02-07T12:46:57.720Z,62.09
2019-02-07T12:49:52.721Z,63.65
2019-02-07T12:52:57.761Z,63.94
2019-02-07T12:55:52.415Z,62.82
2019-02-07T12:58:40.594Z,63.10
2019-02-07T13:01:35.698Z,64.17
2019-02-07T13:04:30.493Z,65.46
2019-02-07T13:07:22.728Z,64.22
2019-02-07T13:10:22.953Z,65.35
2019-02-07T13:13:18.090Z,65.93
2019-02-07T13:16:06.943Z,64.63
2019-02-07T13:19:05.223Z,64.30
2019-02-07T13:21:56.817Z,64.67
2019-02-07T13:24:48.340Z,63.30
2019-02-07T13:27:37.638Z,62.11
2019-02-07T13:30:38.443Z,62.59
2019-02-07T13:33:43.790Z,61.92
2019-02-07T13:36:33.615Z,61.17
2019-02-07T13:39:41.163Z,60.56
2019-02-07T13:42:46.608Z,60.09
2019-02-07T13:45:35.671Z,60.84
2019-02-07T13:48:27.499Z,63.09
2019-02-07T13:51:28.234Z,63.71
2019-02-07T13:54:20.291Z,62.71
2019-02-07T13:57:13.629Z,61.71
2019-02-07T14:00:08.837Z,62.31
2019-02-07T14:03:09.981Z,64.01
2019-02-07T14:05:59.268Z,64.01
2019-02-07T14:08:57.224Z,63.01
2019-02-07T14:11:46.287Z,63.92
2019-02-07T14:14:51.730Z,64.47
2019-02-07T14:17:57.382Z,64.11
2019-02-07T14:20:58.629Z,63.62
2019-02-07T14:24:02.433Z,63.12
2019-02-07T14:26:53.955Z,62.99
2019-02-07T14:29:52.028Z,62.70
2019-02-07T14:32:43.753Z,64.15
2019-02-07T14:35:49.507Z,63.57
2019-02-07T14:38:55.056Z,63.10
2019-02-07T14:41:46.678Z,62.21
2019-02-07T14:44:35.128Z,61.57
2019-02-07T14:47:22.626Z,61.38
2019-02-07T14:50:15.006Z,61.09
2019-02-07T14:53:01.977Z,60.68
2019-02-07T14:55:49.025Z,60.20
2019-02-07T14:58:36.445Z,60.40
2019-02-07T15:01:24.380Z,60.63
2019-02-07T15:04:11.702Z,61.75
2019-02-07T15:06:58.596Z,61.06
2019-02-07T15:09:45.730Z,60.30
2019-02-07T15:12:33.053Z,61.23
2019-02-07T15:15:21.869Z,61.07
2019-02-07T15:18:09.237Z,60.61
2019-02-07T15:20:57.797Z,60.24
2019-02-07T15:23:45.620Z,60.10
2019-02-07T15:26:36.213Z,61.64
2019-02-07T15:29:23.747Z,62.02
2019-02-07T15:32:11.477Z,62.45
2019-02-07T15:34:59.413Z,61.96
2019-02-07T15:37:47.343Z,61.48
2019-02-07T15:40:34.871Z,62.03
2019-02-07T15:43:22.396Z,63.21
2019-02-07T15:46:11.259Z,63.16
2019-02-07T15:48:58.884Z,63.26
2019-02-07T15:51:46.601Z,63.81
2019-02-07T15:54:34.040Z,63.88
2019-02-07T15:57:22.282Z,64.12
2019-02-07T16:00:34.997Z,63.43
2019-02-07T16:03:33.583Z,63.68
2019-02-07T16:06:21.009Z,64.01
2019-02-07T16:09:10.009Z,63.67
2019-02-07T16:11:58.524Z,63.93
2019-02-07T16:14:46.163Z,63.53
2019-02-07T16:17:33.489Z,62.77
2019-02-07T16:20:22.137Z,64.05
2019-02-07T16:23:09.963Z,63.23
2019-02-07T16:25:57.278Z,62.65
2019-02-07T16:28:45.192Z,62.19
2019-02-07T16:31:33.056Z,61.68
2019-02-07T16:34:20.776Z,61.78
2019-02-07T16:37:08.200Z,61.49
2019-02-07T16:39:55.837Z,61.50
2019-02-07T16:42:43.257Z,61.49
2019-02-07T16:45:30.679Z,62.15
2019-02-07T16:48:18.417Z,61.91
2019-02-07T16:51:06.247Z,62.09
2019-02-07T16:53:53.362Z,62.49
2019-02-07T16:56:40.688Z,62.49
2019-02-07T16:59:28.485Z,62.25
2019-02-07T17:02:15.739Z,62.05
2019-02-07T17:05:04.080Z,61.92
2019-02-07T17:07:52.223Z,62.18
2019-02-07T17:10:41.307Z,61.97
2019-02-07T17:13:28.829Z,61.97
2019-02-07T17:16:16.589Z,62.62
2019-02-07T17:19:04.071Z,63.19
2019-02-07T17:21:51.288Z,65.07
2019-02-07T17:24:38.715Z,64.62
2019-02-07T17:27:26.141Z,64.19
2019-02-07T17:30:16.312Z,63.48
2019-02-07T17:33:03.613Z,63.51
2019-02-07T17:35:50.969Z,63.30
2019-02-07T17:38:38.186Z,63.96
2019-02-07T17:41:25.507Z,64.04
2019-02-07T17:44:13.033Z,63.60
2019-02-07T17:47:00.770Z,64.25
2019-02-07T17:49:48.192Z,64.18
2019-02-07T17:52:35.857Z,63.63
2019-02-07T17:55:25.020Z,63.01
2019-02-07T17:58:12.660Z,62.58
2019-02-07T18:01:03.810Z,62.52
2019-02-07T18:03:52.783Z,63.82
2019-02-07T18:06:41.305Z,64.49
2019-02-07T18:09:28.676Z,64.82
2019-02-07T18:12:17.027Z,64.02
2019-02-07T18:15:06.364Z,64.34
2019-02-07T18:17:53.806Z,64.68
2019-02-07T18:20:41.117Z,66.20
2019-02-07T18:23:28.853Z,66.66
2019-02-07T18:26:16.277Z,66.61
2019-02-07T18:29:03.802Z,66.09
2019-02-07T18:31:51.531Z,65.82
2019-02-07T18:34:38.958Z,67.22
2019-02-07T18:37:26.380Z,67.28
2019-02-07T18:40:26.999Z,67.20
2019-02-07T18:43:14.949Z,67.39
2019-02-07T18:46:02.274Z,67.38
2019-02-07T18:48:49.698Z,67.18
2019-02-07T18:51:45.825Z,68.33
2019-02-07T18:54:31.198Z,67.44
2019-02-07T18:57:18.624Z,67.58
2019-02-07T19:00:17.548Z,67.32
2019-02-07T19:03:07.264Z,68.29
2019-02-07T19:05:54.823Z,67.73
2019-02-07T19:08:42.667Z,66.60
2019-02-07T19:11:29.772Z,65.28
2019-02-07T19:14:17.129Z,64.71
2019-02-07T19:17:04.927Z,65.63
2019-02-07T19:19:52.356Z,65.83
2019-02-07T19:22:39.978Z,66.64
2019-02-07T19:25:27.199Z,67.54
2019-02-07T19:28:14.930Z,68.97
2019-02-07T19:31:03.483Z,68.05
2019-02-07T19:33:51.048Z,68.34
2019-02-07T19:36:38.634Z,68.00
2019-02-07T19:39:26.061Z,70.00
2019-02-07T19:42:13.790Z,70.40
2019-02-07T19:45:01.419Z,69.68
2019-02-07T19:47:49.154Z,71.91
2019-02-07T19:50:38.804Z,71.28
2019-02-07T19:53:26.282Z,70.16
2019-02-07T19:56:13.676Z,68.95
2019-02-07T19:59:00.795Z,69.03
2019-02-07T20:01:48.219Z,69.43
2019-02-07T20:04:35.641Z,69.92
2019-02-07T20:07:23.484Z,69.94
2019-02-07T20:10:14.227Z,69.57
2019-02-07T20:13:01.295Z,69.26
2019-02-07T20:15:48.718Z,68.88
2019-02-07T20:18:36.142Z,69.69
2019-02-07T20:21:23.869Z,70.37
2019-02-07T20:24:13.427Z,70.50
2019-02-07T20:27:00.972Z,70.16
2019-02-07T20:29:48.399Z,69.54
2019-02-07T20:32:35.838Z,67.74
2019-02-07T20:35:26.088Z,67.40
2019-02-07T20:38:13.637Z,67.02
2019-02-07T20:41:01.471Z,66.30
2019-02-07T20:43:49.000Z,65.96
2019-02-07T20:46:36.833Z,65.61
2019-02-07T20:49:24.459Z,67.00
2019-02-07T20:52:13.214Z,66.17
2019-02-07T20:55:00.857Z,65.81
2019-02-07T20:57:48.270Z,65.45
2019-02-07T21:00:40.249Z,68.53
2019-02-07T21:03:28.029Z,67.16
2019-02-07T21:06:15.862Z,66.18
2019-02-07T21:09:03.273Z,66.45
2019-02-07T21:11:50.815Z,66.84
2019-02-07T21:14:38.655Z,66.53
2019-02-07T21:17:26.278Z,66.26
2019-02-07T21:20:17.502Z,67.57
2019-02-07T21:23:05.027Z,68.01
2019-02-07T21:25:52.853Z,67.38
2019-02-07T21:28:40.381Z,67.77
2019-02-07T21:31:28.115Z,68.34
2019-02-07T21:34:15.535Z,67.29
2019-02-07T21:37:02.754Z,68.48
2019-02-07T21:39:50.691Z,68.05
2019-02-07T21:42:39.224Z,66.82
2019-02-07T21:45:26.776Z,66.43
2019-02-07T21:48:13.984Z,66.49
2019-02-07T21:51:01.816Z,66.44
2019-02-07T21:53:48.829Z,68.00
2019-02-07T21:56:36.479Z,68.44
2019-02-07T21:59:23.887Z,67.80
2019-02-07T22:02:11.309Z,68.08
2019-02-07T22:04:58.942Z,67.91
2019-02-07T22:07:46.463Z,66.63
2019-02-07T22:10:33.992Z,66.13
2019-02-07T22:13:21.211Z,66.67
2019-02-07T22:16:08.637Z,67.09
2019-02-07T22:18:56.264Z,67.93
2019-02-07T22:21:43.770Z,67.42
2019-02-07T22:24:31.111Z,68.71
2019-02-07T22:27:18.696Z,68.26
2019-02-07T22:30:09.448Z,67.43
2019-02-07T22:32:57.634Z,67.90
2019-02-07T22:35:44.797Z,68.85
2019-02-07T22:38:32.544Z,69.17
2019-02-07T22:41:20.260Z,70.09
2019-02-07T22:44:07.601Z,70.08
2019-02-07T22:46:54.905Z,72.12
2019-02-07T22:49:42.337Z,70.76
2019-02-07T22:52:29.764Z,70.85
2019-02-07T22:55:18.310Z,69.82
2019-02-07T22:58:06.546Z,69.20
2019-02-07T23:01:03.296Z,70.56
2019-02-07T23:03:51.224Z,70.93
2019-02-07T23:06:38.753Z,71.44
2019-02-07T23:09:26.111Z,70.55
2019-02-07T23:12:14.213Z,69.37
2019-02-07T23:15:01.843Z,69.13
2019-02-07T23:17:49.576Z,70.05
2019-02-07T23:20:36.811Z,68.94
2019-02-07T23:23:23.707Z,69.66
2019-02-07T23:26:10.934Z,70.31
2019-02-07T23:28:57.938Z,68.67
2019-02-07T23:31:45.976Z,69.30
2019-02-07T23:34:33.297Z,68.87
2019-02-07T23:37:20.720Z,67.46
2019-02-07T23:40:17.567Z,67.20
2019-02-07T23:43:06.998Z,66.50
2019-02-07T23:45:54.876Z,66.25
2019-02-07T23:48:42.192Z,66.09
2019-02-07T23:51:29.579Z,68.73
2019-02-07T23:54:17.248Z,67.13
2019-02-07T23:57:05.293Z,67.31
2019-02-07T23:59:53.322Z,67.40
